createdAt,value
2023-01-06T00:03:37.486Z,19.1
2023-01-06T00:06:36.456Z,7.8
2023-01-06T00:11:36.894Z,9.3
2023-01-06T00:16:37.432Z,9.1
2023-01-06T00:21:37.867Z,13.4
2023-01-06T00:26:38.373Z,16.4
2023-01-06T00:31:38.888Z,19.6
2023-01-06T00:36:39.497Z,16.1
2023-01-06T00:41:40.014Z,9.7
2023-01-06T00:46:40.491Z,12.1
2023-01-06T00:51:40.922Z,16.7
2023-01-06T00:56:41.507Z,11.0
2023-01-06T01:01:42.081Z,10.5
2023-01-06T01:06:42.457Z,10.3
2023-01-06T01:11:42.896Z,17.4
2023-01-06T01:16:43.496Z,21.5
2023-01-06T01:21:43.931Z,12.1
2023-01-06T01:26:44.541Z,15.8
2023-01-06T01:31:45.041Z,15.5
2023-01-06T01:36:45.562Z,18.9
2023-01-06T01:41:45.940Z,18.4
2023-01-06T01:46:46.655Z,19.7
2023-01-06T01:51:46.955Z,21.3
2023-01-06T01:56:47.493Z,16.8
2023-01-06T02:01:48.151Z,11.7
2023-01-06T02:06:48.504Z,17.2
2023-01-06T02:11:48.896Z,20.9
2023-01-06T02:16:49.462Z,23.3
2023-01-06T02:21:49.900Z,18.1
2023-01-06T02:26:50.391Z,24.9
2023-01-06T02:31:51.421Z,18.5
2023-01-06T02:36:55.028Z,25.5
2023-01-06T02:41:51.715Z,12.7
2023-01-06T02:46:52.131Z,22.7
2023-01-06T02:51:52.636Z,19.1
2023-01-06T02:56:53.192Z,14.6
2023-01-06T03:01:53.737Z,11.2
2023-01-06T03:06:54.045Z,17.9
2023-01-06T03:11:54.579Z,18.8
2023-01-06T03:16:55.103Z,18.5
2023-01-06T03:21:55.547Z,13.8
2023-01-06T03:26:55.992Z,22.0
2023-01-06T03:31:56.775Z,22.9
2023-01-06T03:36:56.992Z,18.5
2023-01-06T03:41:57.574Z,19.6
2023-01-06T03:46:58.212Z,29.7
2023-01-06T03:51:58.538Z,25.9
2023-01-06T03:56:59.001Z,25.0
2023-01-06T04:01:59.610Z,28.7
2023-01-06T04:07:00.066Z,19.5
2023-01-06T04:12:00.608Z,25.8
2023-01-06T04:17:01.152Z,20.2
2023-01-06T04:22:01.721Z,23.9
2023-01-06T04:27:02.143Z,23.1
2023-01-06T04:32:02.964Z,22.6
2023-01-06T04:37:03.196Z,24.3
2023-01-06T04:42:03.687Z,28.4
2023-01-06T04:47:04.383Z,28.2
2023-01-06T04:52:04.743Z,22.7
2023-01-06T04:57:05.238Z,25.3
2023-01-06T05:02:06.154Z,24.9
2023-01-06T05:07:06.385Z,26.4
2023-01-06T05:12:06.792Z,18.5
2023-01-06T05:17:07.512Z,22.8
2023-01-06T05:22:07.867Z,28.2
2023-01-06T05:27:08.484Z,19.9
2023-01-06T05:32:09.275Z,25.0
2023-01-06T05:37:09.562Z,17.3
2023-01-06T05:42:09.971Z,16.1
2023-01-06T05:47:10.753Z,24.9
2023-01-06T05:52:11.102Z,10.4
2023-01-06T05:57:11.730Z,13.0
2023-01-06T06:02:12.284Z,16.7
2023-01-06T06:07:12.804Z,8.9
2023-01-06T06:12:13.378Z,11.2
2023-01-06T06:17:13.864Z,7.6
2023-01-06T06:22:14.396Z,16.1
2023-01-06T06:27:14.864Z,17.9
2023-01-06T06:32:15.965Z,11.3
2023-01-06T06:37:15.963Z,14.4
2023-01-06T06:42:16.616Z,13.7
2023-01-06T06:47:17.183Z,13.5
2023-01-06T06:52:17.652Z,11.4
2023-01-06T06:57:18.188Z,14.9
2023-01-06T07:02:18.962Z,14.5
2023-01-06T07:07:19.334Z,13.8
2023-01-06T07:12:19.873Z,8.4
2023-01-06T07:17:20.562Z,18.3
2023-01-06T07:22:20.968Z,10.7
2023-01-06T07:27:21.603Z,6.5
2023-01-06T07:32:22.492Z,10.3
2023-01-06T07:37:22.642Z,16.3
2023-01-06T07:42:23.194Z,11.2
2023-01-06T07:47:23.777Z,15.5
2023-01-06T07:52:24.233Z,12.4
2023-01-06T07:57:24.823Z,13.1
2023-01-06T08:02:25.570Z,13.4
2023-01-06T08:07:25.824Z,13.0
2023-01-06T08:12:26.447Z,9.8
2023-01-06T08:17:26.932Z,13.9
2023-01-06T08:22:27.520Z,12.7
2023-01-06T08:27:27.939Z,12.4
2023-01-06T08:32:28.926Z,13.6
2023-01-06T08:37:29.813Z,10.5
2023-01-06T08:42:29.586Z,12.7
2023-01-06T08:47:30.127Z,12.6
2023-01-06T08:52:30.642Z,8.9
2023-01-06T08:57:31.115Z,8.9
2023-01-06T09:02:31.778Z,11.4
2023-01-06T09:07:32.130Z,10.0
2023-01-06T09:12:32.719Z,10.5
2023-01-06T09:17:33.281Z,13.6
2023-01-06T09:22:33.751Z,12.9
2023-01-06T09:27:34.325Z,14.7
2023-01-06T09:32:35.164Z,13.5
2023-01-06T09:37:35.461Z,13.5
2023-01-06T09:42:35.936Z,11.3
2023-01-06T09:47:36.535Z,11.5
2023-01-06T09:52:36.947Z,7.9
2023-01-06T09:57:37.521Z,10.3
2023-01-06T10:02:38.034Z,15.0
2023-01-06T10:07:38.555Z,9.7
2023-01-06T10:12:39.019Z,16.9
2023-01-06T10:17:39.625Z,13.2
2023-01-06T10:22:39.950Z,14.5
2023-01-06T10:27:40.433Z,7.9
2023-01-06T10:32:42.896Z,10.0
2023-01-06T10:36:08.947Z,10.0
2023-01-06T10:37:41.451Z,6.5
2023-01-06T10:42:41.968Z,9.8
2023-01-06T10:47:42.757Z,4.9
2023-01-06T10:52:43.023Z,14.6
2023-01-06T10:57:43.575Z,6.6
2023-01-06T11:02:44.246Z,8.8
2023-01-06T11:07:44.598Z,9.9
2023-01-06T11:12:44.974Z,22.5
2023-01-06T11:17:45.699Z,26.5
2023-01-06T11:22:45.946Z,11.7
2023-01-06T11:27:46.421Z,7.3
2023-01-06T11:32:47.563Z,23.9
2023-01-06T11:37:47.473Z,10.3
2023-01-06T11:42:47.926Z,11.1
2023-01-06T11:47:48.585Z,14.9
2023-01-06T11:52:48.981Z,8.0
2023-01-06T11:57:49.575Z,11.3
2023-01-06T12:02:50.093Z,12.7
2023-01-06T12:07:50.519Z,10.1
2023-01-06T12:12:50.969Z,19.7
2023-01-06T12:17:51.544Z,11.6
2023-01-06T12:22:51.972Z,7.0
2023-01-06T12:27:52.493Z,10.3
2023-01-06T12:32:53.258Z,8.6
2023-01-06T12:37:53.461Z,5.9
2023-01-06T12:42:53.965Z,9.5
2023-01-06T12:47:55.145Z,8.6
2023-01-06T12:52:54.937Z,7.4
2023-01-06T12:57:55.503Z,8.7
2023-01-06T13:02:56.005Z,11.9
2023-01-06T13:07:56.543Z,6.5
2023-01-06T13:12:56.970Z,7.3
2023-01-06T13:17:57.652Z,8.9
2023-01-06T13:22:57.932Z,14.8
2023-01-06T13:27:58.568Z,11.1
2023-01-06T13:32:59.253Z,17.8
2023-01-06T13:37:59.552Z,3.7
2023-01-06T13:43:00.035Z,7.2
2023-01-06T13:48:00.640Z,6.3
2023-01-06T13:53:00.905Z,3.7
2023-01-06T13:58:01.406Z,7.8
2023-01-06T14:03:02.077Z,4.8
2023-01-06T14:08:02.469Z,4.2
2023-01-06T14:13:02.896Z,5.0
2023-01-06T14:18:03.594Z,4.4
2023-01-06T14:23:03.927Z,2.9
2023-01-06T14:28:04.549Z,6.5
2023-01-06T14:33:05.180Z,9.5
2023-01-06T14:38:05.500Z,3.6
2023-01-06T14:43:05.971Z,14.0
2023-01-06T14:48:06.610Z,7.7
2023-01-06T14:53:06.963Z,9.0
2023-01-06T14:58:07.620Z,10.5
2023-01-06T15:03:08.152Z,12.5
2023-01-06T15:08:08.664Z,6.1
2023-01-06T15:13:09.062Z,11.9
2023-01-06T15:18:09.676Z,22.0
2023-01-06T15:23:10.161Z,15.2
2023-01-06T15:28:10.689Z,17.7
2023-01-06T15:33:11.491Z,12.2
2023-01-06T15:38:11.785Z,10.0
2023-01-06T15:43:12.314Z,10.3
2023-01-06T15:48:12.828Z,41.2
2023-01-06T15:53:13.330Z,13.4
2023-01-06T15:58:13.755Z,10.5
2023-01-06T16:03:14.402Z,17.0
2023-01-06T16:08:14.697Z,11.8
2023-01-06T16:13:17.881Z,17.1
2023-01-06T16:18:15.785Z,9.0
2023-01-06T16:23:16.142Z,13.0
2023-01-06T16:28:16.683Z,9.1
2023-01-06T16:33:17.484Z,7.8
2023-01-06T16:38:17.673Z,15.8
2023-01-06T16:43:18.235Z,8.9
2023-01-06T16:48:18.828Z,7.0
2023-01-06T16:53:19.428Z,6.8
2023-01-06T16:58:19.822Z,17.4
2023-01-06T17:03:20.460Z,9.3
2023-01-06T17:08:20.855Z,9.6
2023-01-06T17:13:21.423Z,8.0
2023-01-06T17:18:21.962Z,8.6
2023-01-06T17:23:22.459Z,10.6
2023-01-06T17:28:22.816Z,6.2
2023-01-06T17:33:24.033Z,6.4
2023-01-06T17:38:23.857Z,8.3
2023-01-06T17:43:24.375Z,5.7
2023-01-06T17:48:24.886Z,5.4
2023-01-06T17:53:25.397Z,3.7
2023-01-06T17:58:25.777Z,4.2
2023-01-06T18:03:26.383Z,6.2
2023-01-06T18:08:26.743Z,4.2
2023-01-06T18:13:27.214Z,4.4
2023-01-06T18:18:27.765Z,5.2
2023-01-06T18:23:28.250Z,3.9
2023-01-06T18:28:28.714Z,5.0
2023-01-06T18:33:29.581Z,6.5
2023-01-06T18:38:29.699Z,4.2
2023-01-06T18:43:30.677Z,4.5
2023-01-06T18:48:30.773Z,2.2
2023-01-06T18:53:31.168Z,4.2
2023-01-06T18:58:31.735Z,4.2
2023-01-06T19:03:32.626Z,2.5
2023-01-06T19:08:33.119Z,9.7
2023-01-06T19:13:33.037Z,5.0
2023-01-06T19:18:33.731Z,3.3
2023-01-06T19:23:33.907Z,2.4
2023-01-06T19:28:34.479Z,3.9
2023-01-06T19:33:35.313Z,5.3
2023-01-06T19:38:35.333Z,4.3
2023-01-06T19:43:35.714Z,6.2
2023-01-06T19:48:36.167Z,4.1
2023-01-06T19:53:36.602Z,3.1
2023-01-06T19:58:37.121Z,5.6
2023-01-06T20:03:37.662Z,4.0
2023-01-06T20:08:38.008Z,5.8
2023-01-06T20:13:38.706Z,5.3
2023-01-06T20:18:39.002Z,3.3
2023-01-06T20:23:39.447Z,4.7
2023-01-06T20:28:39.827Z,4.7
2023-01-06T20:33:40.610Z,3.0
2023-01-06T20:38:40.740Z,3.8
2023-01-06T20:43:41.277Z,4.2
2023-01-06T20:48:41.789Z,6.2
2023-01-06T20:53:42.260Z,6.3
2023-01-06T20:58:42.686Z,4.2
2023-01-06T21:03:43.220Z,3.3
2023-01-06T21:08:43.756Z,3.6
2023-01-06T21:13:44.048Z,4.0
2023-01-06T21:18:44.710Z,2.9
2023-01-06T21:23:44.952Z,3.6
2023-01-06T21:28:45.502Z,2.3
2023-01-06T21:33:46.359Z,3.5
2023-01-06T21:38:46.349Z,3.8
2023-01-06T21:43:46.819Z,3.7
2023-01-06T21:48:47.324Z,3.3
2023-01-06T21:53:47.775Z,4.8
2023-01-06T21:58:48.203Z,4.6
2023-01-06T22:03:48.701Z,4.1
2023-01-06T22:08:49.041Z,6.4
2023-01-06T22:13:49.483Z,2.5
2023-01-06T22:18:49.982Z,2.8
2023-01-06T22:23:50.450Z,2.8
2023-01-06T22:28:50.804Z,3.9
2023-01-06T22:33:51.620Z,3.9
2023-01-06T22:38:51.634Z,4.3
2023-01-06T22:43:52.124Z,1.9
2023-01-06T22:48:52.706Z,1.7
2023-01-06T22:53:52.946Z,2.1
2023-01-06T22:58:53.531Z,2.5
2023-01-06T23:03:53.910Z,2.4
2023-01-06T23:09:00.084Z,2.8
2023-01-06T23:13:54.741Z,2.6
2023-01-06T23:18:55.331Z,1.8
2023-01-06T23:23:55.701Z,3.6
2023-01-06T23:28:56.195Z,1.8
2023-01-06T23:33:57.221Z,3.5
2023-01-06T23:38:57.114Z,2.3
2023-01-06T23:43:57.729Z,5.6
2023-01-06T23:48:58.374Z,2.5
2023-01-06T23:53:58.572Z,2.5
2023-01-06T23:58:59.048Z,2.4
